createdAt,value
2023-02-08T11:44:04.264Z,99.08
2023-02-08T11:45:06.350Z,98.02
2023-02-08T11:46:10.187Z,99.03
2023-02-08T11:47:14.017Z,98.88
2023-02-08T11:48:10.011Z,97.20
2023-02-08T11:49:18.507Z,96.90
2023-02-08T11:50:07.132Z,96.62
2023-02-08T11:51:04.154Z,96.33
2023-02-08T11:52:11.595Z,97.58
2023-02-08T11:53:04.418Z,97.72
2023-02-08T11:54:04.288Z,96.42
2023-02-08T11:55:04.492Z,95.98
2023-02-08T11:56:13.410Z,96.09
2023-02-08T11:57:04.474Z,97.45
2023-02-08T11:58:04.335Z,95.55
2023-02-08T11:59:04.453Z,94.42
2023-02-08T12:00:04.394Z,97.05
2023-02-08T12:01:04.368Z,95.53
2023-02-08T12:06:53.105Z,91.04
2023-02-08T12:07:54.690Z,92.23
2023-02-08T12:08:53.272Z,92.62
2023-02-08T12:09:53.169Z,93.04
2023-02-08T12:14:06.668Z,91.68
2023-02-08T12:15:06.353Z,91.38
2023-02-08T12:16:06.324Z,89.88
2023-02-08T12:19:03.203Z,90.67
2023-02-08T12:20:00.364Z,89.89
2023-02-08T12:24:47.770Z,85.97
2023-02-08T12:26:47.924Z,85.15
2023-02-08T12:30:14.786Z,82.71
2023-02-08T12:31:14.770Z,82.03
2023-02-08T12:35:33.026Z,82.96
2023-02-08T12:36:21.776Z,82.13
2023-02-08T12:39:56.236Z,79.57
2023-02-08T12:40:56.203Z,78.17
2023-02-08T12:44:02.432Z,77.01
2023-02-08T12:53:47.012Z,78.83
2023-02-08T12:54:47.210Z,80.26
2023-02-08T12:55:47.527Z,82.88
2023-02-08T12:57:00.376Z,84.46
2023-02-08T12:57:47.240Z,84.87
2023-02-08T12:58:47.257Z,86.26
2023-02-08T12:59:47.232Z,87.65
2023-02-08T13:00:47.180Z,86.88
2023-02-08T13:01:47.255Z,86.48
2023-02-08T13:02:47.300Z,87.77
2023-02-08T13:03:47.212Z,87.63
2023-02-08T13:07:52.837Z,84.32
2023-02-08T13:08:52.909Z,85.34
2023-02-08T13:09:53.035Z,84.95
2023-02-08T13:10:52.995Z,85.58
2023-02-08T13:11:53.052Z,86.84
2023-02-08T13:12:53.135Z,86.82
2023-02-08T13:13:53.070Z,86.24
2023-02-08T13:14:53.512Z,87.09
2023-02-08T13:15:53.052Z,88.67
2023-02-08T13:16:52.974Z,88.75
2023-02-08T13:17:53.042Z,89.89
2023-02-08T13:19:00.337Z,92.06
2023-02-08T13:20:00.117Z,94.52
2023-02-08T13:20:53.026Z,95.25
2023-02-08T13:21:53.070Z,96.43
2023-02-08T13:22:55.212Z,98.39
2023-02-08T13:23:53.447Z,98.19
2023-02-08T13:25:06.316Z,97.15
2023-02-08T13:25:53.144Z,99.49
2023-02-08T13:26:53.013Z,99.28
2023-02-08T13:27:53.040Z,100.00
2023-02-08T13:28:53.121Z,100.00
2023-02-08T13:29:54.184Z,100.00
2023-02-08T13:30:53.318Z,100.00
2023-02-08T13:31:53.029Z,100.00
2023-02-08T13:32:54.762Z,100.00
2023-02-08T13:34:01.356Z,100.00
2023-02-08T13:34:57.640Z,100.00
2023-02-08T13:35:55.724Z,100.00
2023-02-08T13:36:53.161Z,100.00
2023-02-08T13:37:53.146Z,100.00
2023-02-08T13:38:53.074Z,100.00
2023-02-08T13:39:55.026Z,100.00
2023-02-08T13:41:05.299Z,100.00
2023-02-08T13:41:53.196Z,100.00
2023-02-08T13:42:53.239Z,100.00
2023-02-08T13:43:53.171Z,100.00
2023-02-08T13:44:53.069Z,100.00
2023-02-08T13:45:55.303Z,100.00
2023-02-08T13:46:53.111Z,100.00
2023-02-08T13:47:54.805Z,100.00
2023-02-08T13:48:53.234Z,100.00
2023-02-08T13:49:53.595Z,100.00
2023-02-08T13:50:59.389Z,100.00
2023-02-08T13:51:56.061Z,100.00
2023-02-08T13:52:55.146Z,100.00
2023-02-08T13:53:53.312Z,100.00
2023-02-08T13:54:53.358Z,100.00
2023-02-08T13:55:56.451Z,100.00
2023-02-08T13:56:53.203Z,100.00
2023-02-08T13:57:53.176Z,100.00
2023-02-08T13:58:54.163Z,100.00
2023-02-08T14:00:00.490Z,100.00
2023-02-08T14:00:53.346Z,100.00
2023-02-08T14:01:53.375Z,100.00
2023-02-08T14:03:15.131Z,100.00
2023-02-08T14:03:53.199Z,100.00
2023-02-08T14:04:53.369Z,100.00
2023-02-08T14:06:53.320Z,99.60
2023-02-08T14:07:53.258Z,99.84
2023-02-08T14:08:53.163Z,100.00
2023-02-08T14:09:53.256Z,100.00
2023-02-08T14:10:53.301Z,100.00
2023-02-08T14:11:53.283Z,100.00
2023-02-08T14:12:53.321Z,100.00
2023-02-08T14:13:53.254Z,100.00
2023-02-08T14:14:53.649Z,100.00
2023-02-08T14:15:53.240Z,100.00
2023-02-08T14:16:53.242Z,100.00
2023-02-08T14:17:53.336Z,100.00
2023-02-08T14:18:53.399Z,100.00
2023-02-08T14:19:53.236Z,100.00
2023-02-08T14:20:53.298Z,100.00
2023-02-08T14:21:53.214Z,100.00
2023-02-08T14:22:53.179Z,100.00
2023-02-08T14:23:53.234Z,100.00
2023-02-08T14:24:53.283Z,100.00
2023-02-08T14:25:53.261Z,100.00
2023-02-08T14:26:53.353Z,100.00
2023-02-08T14:27:53.379Z,100.00
2023-02-08T14:28:53.321Z,100.00
2023-02-08T14:29:53.347Z,100.00
2023-02-08T14:30:53.258Z,100.00
2023-02-08T14:31:53.441Z,100.00
2023-02-08T14:32:53.363Z,100.00
2023-02-08T14:33:53.268Z,100.00
2023-02-08T14:34:53.340Z,100.00
2023-02-08T14:35:53.355Z,100.00
2023-02-08T14:36:53.254Z,100.00
